Home   Weather   Russia   Ufa   Past weeks
Flag for Russia

Past Weather in Ufa, Russia — Yesterday and Last 2 Weeks

Currently: 86 °F. Passing clouds. (Weather station: Ufa, Russia). See more current weather

Past Weather in Ufa — Graph

°F

Ufa Temperature Yesterday

Maximum temperature yesterday: 84 °F (at 3:30 pm)
Minimum temperature yesterday: 46 °F (at 5:30 am)
Average temperature yesterday: 67 °F

High & Low Weather Summary for the Past Weeks

 TemperatureHumidityPressure
High86 °F (May 14, 3:00 pm)100% (May 2, 9:00 am)30.36 "Hg (May 2, 9:00 am)
Low32 °F (May 1, 5:30 am)18% (May 4, 6:30 pm)29.53 "Hg (May 5, 5:30 am)
Average59 °F51%30.06 "Hg
* Reported Apr 29 3:00 pm — May 14 3:30 pm, Ufa. Weather by CustomWeather, © 2021

Note: Actual official high and low records may vary slightly from our data, if they occured in-between our weather recording intervals... More about our weather records

Ufa Weather History for the Previous 24 Hours

Scroll right to see more
 ConditionsComfort  
Time TempWeatherWind HumidityBarometerVisibility
3:30 pm
Fri, May 14
86 °FSunny.10 mph19%30.24 "Hg10 mi
3:00 pm86 °FPassing clouds.10 mph19%30.24 "HgN/A
2:30 pm84 °FPassing clouds.10 mph22%30.27 "HgN/A
2:00 pm84 °FPassing clouds.8 mph20%30.27 "HgN/A
1:30 pm84 °FPleasantly warm.8 mph22%30.27 "HgN/A
12:30 pm82 °FPassing clouds.3 mph21%30.30 "HgN/A
12:00 pm82 °FSunny.3 mph23%30.30 "Hg10 mi
11:30 am81 °FPassing clouds.3 mph28%30.30 "HgN/A
11:00 am79 °FPassing clouds.3 mph30%30.30 "HgN/A
10:30 am75 °FSunny.1 mph31%30.30 "Hg10 mi
10:00 am73 °FPassing clouds.3 mph36%30.30 "HgN/A
9:30 am70 °FPassing clouds.6 mph40%30.30 "HgN/A
9:00 am66 °FPassing clouds.3 mph52%30.30 "HgN/A
8:30 am63 °FSunny.3 mph68%30.30 "Hg10 mi
8:00 am59 °FSunny.1 mph72%30.30 "Hg10 mi
7:30 am55 °FSunny.1 mph82%30.30 "Hg10 mi
7:00 am54 °FSunny.1 mph82%30.30 "Hg10 mi
6:30 am52 °FSunny.3 mph88%30.30 "Hg10 mi
6:00 am48 °FClear.No wind87%30.30 "Hg10 mi
5:30 am52 °FClear.No wind82%30.30 "Hg10 mi
5:00 am52 °FClear.1 mph88%30.30 "Hg10 mi
4:30 am50 °FClear.3 mph88%30.27 "Hg10 mi
4:00 am52 °FPassing clouds.3 mph88%30.27 "HgN/A
3:30 am52 °FClear.3 mph88%30.27 "Hg10 mi
3:00 am54 °FClear.1 mph77%30.27 "Hg10 mi
2:30 am52 °FClear.1 mph72%30.27 "Hg10 mi
2:00 am57 °FClear.6 mph63%30.27 "Hg10 mi
1:30 am57 °FClear.3 mph67%30.27 "Hg10 mi
1:00 am57 °FClear.3 mph67%30.27 "Hg10 mi
12:30 am57 °FClear.1 mph59%30.27 "Hg10 mi
12:00 am59 °FClear.8 mph59%30.27 "Hg10 mi
11:00 pm
Thu, May 13
63 °FClear.8 mph52%30.27 "Hg10 mi
10:30 pm64 °FPassing clouds.6 mph49%30.27 "HgN/A
10:00 pm66 °FSunny.6 mph46%30.27 "Hg10 mi
8:30 pm79 °FSunny.No wind30%30.24 "Hg10 mi
7:30 pm82 °FSunny.1 mph26%30.24 "Hg10 mi
7:00 pm82 °FSunny.1 mph32%30.24 "Hg10 mi
6:30 pm84 °FSunny.1 mph27%30.27 "Hg10 mi
6:00 pm84 °FSunny.3 mph25%30.27 "Hg10 mi
5:30 pm84 °FPassing clouds.3 mph23%30.27 "HgN/A
5:00 pm84 °FSunny.1 mph25%30.27 "Hg10 mi
4:30 pm84 °FSunny.1 mph22%30.27 "Hg10 mi
4:00 pm82 °FSunny.3 mph26%30.30 "Hg10 mi
Weather by CustomWeather, © 2021

See weather overview